<?xml version="1.0" encoding="UTF-8" standalone="no" ?>
<gpx xmlns="http://www.topografix.com/GPX/1/1" xmlns:xsi="http://www.w3.org/2001/XMLSchema-instance" xsi:schemaLocation="http://www.topografix.com/GPX/1/1 http://www.topografix.com/GPX/1/1/gpx.xsd" version="1.1" creator="VisuGPX - https://www.visugpx.com">
  <metadata>
    <name>Confoux - Pont de Rhaud</name>
    <desc><![CDATA[Randonnée du 07/04/2021 proposée par JP pour Gransrandonnée]]></desc>
  </metadata>
  <trk>
    <name><![CDATA[Randonnée du 07/04/2021 à 13:49]]></name>
    <trkseg>
      <trkpt lat="43.58435" lon="5.08288">
        <ele>68.3</ele>
        <time>2021-04-07T11:49:40Z</time>
      </trkpt>
      <trkpt lat="43.58413" lon="5.08274">
        <ele>67.6</ele>
        <time>2021-04-07T11:50:19Z</time>
      </trkpt>
      <trkpt lat="43.58408" lon="5.08242">
        <ele>66.4</ele>
        <time>2021-04-07T11:50:48Z</time>
      </trkpt>
      <trkpt lat="43.58398" lon="5.08215">
        <ele>65.5</ele>
        <time>2021-04-07T11:51:15Z</time>
      </trkpt>
      <trkpt lat="43.58384" lon="5.08189">
        <ele>65</ele>
        <time>2021-04-07T11:51:33Z</time>
      </trkpt>
      <trkpt lat="43.58364" lon="5.08173">
        <ele>64.9</ele>
        <time>2021-04-07T11:51:55Z</time>
      </trkpt>
      <trkpt lat="43.58355" lon="5.08144">
        <ele>64.7</ele>
        <time>2021-04-07T11:52:17Z</time>
      </trkpt>
      <trkpt lat="43.58361" lon="5.08113">
        <ele>64.1</ele>
        <time>2021-04-07T11:52:37Z</time>
      </trkpt>
      <trkpt lat="43.58365" lon="5.08081">
        <ele>63.5</ele>
        <time>2021-04-07T11:53:02Z</time>
      </trkpt>
      <trkpt lat="43.58365" lon="5.08049">
        <ele>63.5</ele>
        <time>2021-04-07T11:53:20Z</time>
      </trkpt>
      <trkpt lat="43.5837" lon="5.08018">
        <ele>63.2</ele>
        <time>2021-04-07T11:53:36Z</time>
      </trkpt>
      <trkpt lat="43.58369" lon="5.07986">
        <ele>63.8</ele>
        <time>2021-04-07T11:53:55Z</time>
      </trkpt>
      <trkpt lat="43.58369" lon="5.07954">
        <ele>65.1</ele>
        <time>2021-04-07T11:54:13Z</time>
      </trkpt>
      <trkpt lat="43.58374" lon="5.07923">
        <ele>66.3</ele>
        <time>2021-04-07T11:54:35Z</time>
      </trkpt>
      <trkpt lat="43.58384" lon="5.07894">
        <ele>66.9</ele>
        <time>2021-04-07T11:54:59Z</time>
      </trkpt>
      <trkpt lat="43.58404" lon="5.07877">
        <ele>67.1</ele>
        <time>2021-04-07T11:55:15Z</time>
      </trkpt>
      <trkpt lat="43.58423" lon="5.0786">
        <ele>67.2</ele>
        <time>2021-04-07T11:55:33Z</time>
      </trkpt>
      <trkpt lat="43.58445" lon="5.07853">
        <ele>66.8</ele>
        <time>2021-04-07T11:55:53Z</time>
      </trkpt>
      <trkpt lat="43.58468" lon="5.07851">
        <ele>66.2</ele>
        <time>2021-04-07T11:56:11Z</time>
      </trkpt>
      <trkpt lat="43.58491" lon="5.07847">
        <ele>65.8</ele>
        <time>2021-04-07T11:56:30Z</time>
      </trkpt>
      <trkpt lat="43.58514" lon="5.07842">
        <ele>65.6</ele>
        <time>2021-04-07T11:56:50Z</time>
      </trkpt>
      <trkpt lat="43.58536" lon="5.07837">
        <ele>65.5</ele>
        <time>2021-04-07T11:57:11Z</time>
      </trkpt>
      <trkpt lat="43.58559" lon="5.07836">
        <ele>65.2</ele>
        <time>2021-04-07T11:57:27Z</time>
      </trkpt>
      <trkpt lat="43.58582" lon="5.07842">
        <ele>64.8</ele>
        <time>2021-04-07T11:57:45Z</time>
      </trkpt>
      <trkpt lat="43.58606" lon="5.07842">
        <ele>64</ele>
        <time>2021-04-07T11:58:05Z</time>
      </trkpt>
      <trkpt lat="43.58628" lon="5.07833">
        <ele>63.4</ele>
        <time>2021-04-07T11:58:24Z</time>
      </trkpt>
      <trkpt lat="43.5865" lon="5.07821">
        <ele>63</ele>
        <time>2021-04-07T11:58:44Z</time>
      </trkpt>
      <trkpt lat="43.58671" lon="5.0781">
        <ele>62.7</ele>
        <time>2021-04-07T11:59:02Z</time>
      </trkpt>
      <trkpt lat="43.58691" lon="5.07795">
        <ele>62.7</ele>
        <time>2021-04-07T11:59:20Z</time>
      </trkpt>
      <trkpt lat="43.58713" lon="5.07783">
        <ele>62.4</ele>
        <time>2021-04-07T11:59:41Z</time>
      </trkpt>
      <trkpt lat="43.58734" lon="5.07769">
        <ele>62.1</ele>
        <time>2021-04-07T12:00:00Z</time>
      </trkpt>
      <trkpt lat="43.58748" lon="5.07744">
        <ele>62.3</ele>
        <time>2021-04-07T12:00:20Z</time>
      </trkpt>
      <trkpt lat="43.58762" lon="5.07719">
        <ele>62.8</ele>
        <time>2021-04-07T12:00:38Z</time>
      </trkpt>
      <trkpt lat="43.58777" lon="5.07696">
        <ele>63.3</ele>
        <time>2021-04-07T12:00:55Z</time>
      </trkpt>
      <trkpt lat="43.58797" lon="5.07678">
        <ele>63.5</ele>
        <time>2021-04-07T12:01:15Z</time>
      </trkpt>
      <trkpt lat="43.58818" lon="5.07664">
        <ele>63.5</ele>
        <time>2021-04-07T12:01:36Z</time>
      </trkpt>
      <trkpt lat="43.58841" lon="5.07658">
        <ele>63.6</ele>
        <time>2021-04-07T12:01:57Z</time>
      </trkpt>
      <trkpt lat="43.58863" lon="5.07648">
        <ele>64.3</ele>
        <time>2021-04-07T12:02:45Z</time>
      </trkpt>
      <trkpt lat="43.58886" lon="5.07654">
        <ele>64.2</ele>
        <time>2021-04-07T12:03:12Z</time>
      </trkpt>
      <trkpt lat="43.5891" lon="5.07663">
        <ele>64.1</ele>
        <time>2021-04-07T12:03:25Z</time>
      </trkpt>
      <trkpt lat="43.58934" lon="5.07659">
        <ele>64.6</ele>
        <time>2021-04-07T12:03:43Z</time>
      </trkpt>
      <trkpt lat="43.58955" lon="5.07648">
        <ele>65.4</ele>
        <time>2021-04-07T12:04:04Z</time>
      </trkpt>
      <trkpt lat="43.58977" lon="5.07642">
        <ele>65.9</ele>
        <time>2021-04-07T12:04:26Z</time>
      </trkpt>
      <trkpt lat="43.58997" lon="5.07627">
        <ele>66.4</ele>
        <time>2021-04-07T12:04:44Z</time>
      </trkpt>
      <trkpt lat="43.59017" lon="5.07611">
        <ele>66.4</ele>
        <time>2021-04-07T12:05:02Z</time>
      </trkpt>
      <trkpt lat="43.59038" lon="5.07595">
        <ele>66.3</ele>
        <time>2021-04-07T12:05:19Z</time>
      </trkpt>
      <trkpt lat="43.59056" lon="5.07576">
        <ele>66.4</ele>
        <time>2021-04-07T12:05:39Z</time>
      </trkpt>
      <trkpt lat="43.59075" lon="5.07558">
        <ele>66.4</ele>
        <time>2021-04-07T12:06:01Z</time>
      </trkpt>
      <trkpt lat="43.59093" lon="5.0754">
        <ele>66.3</ele>
        <time>2021-04-07T12:06:23Z</time>
      </trkpt>
      <trkpt lat="43.59111" lon="5.07519">
        <ele>66.4</ele>
        <time>2021-04-07T12:06:43Z</time>
      </trkpt>
      <trkpt lat="43.59133" lon="5.07511">
        <ele>66.2</ele>
        <time>2021-04-07T12:07:01Z</time>
      </trkpt>
      <trkpt lat="43.59154" lon="5.07502">
        <ele>66.1</ele>
        <time>2021-04-07T12:07:20Z</time>
      </trkpt>
      <trkpt lat="43.59176" lon="5.0749">
        <ele>66.4</ele>
        <time>2021-04-07T12:07:38Z</time>
      </trkpt>
      <trkpt lat="43.59197" lon="5.07479">
        <ele>66.5</ele>
        <time>2021-04-07T12:07:55Z</time>
      </trkpt>
      <trkpt lat="43.59219" lon="5.07469">
        <ele>66.3</ele>
        <time>2021-04-07T12:08:13Z</time>
      </trkpt>
      <trkpt lat="43.59242" lon="5.07458">
        <ele>65.8</ele>
        <time>2021-04-07T12:08:34Z</time>
      </trkpt>
      <trkpt lat="43.59265" lon="5.07456">
        <ele>64.6</ele>
        <time>2021-04-07T12:08:52Z</time>
      </trkpt>
      <trkpt lat="43.59288" lon="5.07454">
        <ele>63.3</ele>
        <time>2021-04-07T12:09:11Z</time>
      </trkpt>
      <trkpt lat="43.59311" lon="5.07447">
        <ele>62</ele>
        <time>2021-04-07T12:09:34Z</time>
      </trkpt>
      <trkpt lat="43.59332" lon="5.07435">
        <ele>60.9</ele>
        <time>2021-04-07T12:09:52Z</time>
      </trkpt>
      <trkpt lat="43.59353" lon="5.07421">
        <ele>60</ele>
        <time>2021-04-07T12:10:12Z</time>
      </trkpt>
      <trkpt lat="43.59374" lon="5.0741">
        <ele>59.4</ele>
        <time>2021-04-07T12:10:31Z</time>
      </trkpt>
      <trkpt lat="43.59396" lon="5.074">
        <ele>58.7</ele>
        <time>2021-04-07T12:10:48Z</time>
      </trkpt>
      <trkpt lat="43.59417" lon="5.07391">
        <ele>57.9</ele>
        <time>2021-04-07T12:11:08Z</time>
      </trkpt>
      <trkpt lat="43.5944" lon="5.07384">
        <ele>58.1</ele>
        <time>2021-04-07T12:11:28Z</time>
      </trkpt>
      <trkpt lat="43.59461" lon="5.07372">
        <ele>58.3</ele>
        <time>2021-04-07T12:11:50Z</time>
      </trkpt>
      <trkpt lat="43.59485" lon="5.0737">
        <ele>58.2</ele>
        <time>2021-04-07T12:13:01Z</time>
      </trkpt>
      <trkpt lat="43.59507" lon="5.07376">
        <ele>57.8</ele>
        <time>2021-04-07T12:13:26Z</time>
      </trkpt>
      <trkpt lat="43.5953" lon="5.07377">
        <ele>57.2</ele>
        <time>2021-04-07T12:13:42Z</time>
      </trkpt>
      <trkpt lat="43.59553" lon="5.07377">
        <ele>56.7</ele>
        <time>2021-04-07T12:14:00Z</time>
      </trkpt>
      <trkpt lat="43.59576" lon="5.0737">
        <ele>56.2</ele>
        <time>2021-04-07T12:14:21Z</time>
      </trkpt>
      <trkpt lat="43.59574" lon="5.07339">
        <ele>56.3</ele>
        <time>2021-04-07T12:14:47Z</time>
      </trkpt>
      <trkpt lat="43.59561" lon="5.07311">
        <ele>57.1</ele>
        <time>2021-04-07T12:15:08Z</time>
      </trkpt>
      <trkpt lat="43.59554" lon="5.07281">
        <ele>57.9</ele>
        <time>2021-04-07T12:15:26Z</time>
      </trkpt>
      <trkpt lat="43.59543" lon="5.07254">
        <ele>58.9</ele>
        <time>2021-04-07T12:15:44Z</time>
      </trkpt>
      <trkpt lat="43.59534" lon="5.07224">
        <ele>59.9</ele>
        <time>2021-04-07T12:16:06Z</time>
      </trkpt>
      <trkpt lat="43.59525" lon="5.07194">
        <ele>60.9</ele>
        <time>2021-04-07T12:16:26Z</time>
      </trkpt>
      <trkpt lat="43.59522" lon="5.07163">
        <ele>62</ele>
        <time>2021-04-07T12:16:44Z</time>
      </trkpt>
      <trkpt lat="43.59514" lon="5.07134">
        <ele>64.6</ele>
        <time>2021-04-07T12:17:07Z</time>
      </trkpt>
      <trkpt lat="43.59509" lon="5.07101">
        <ele>67.4</ele>
        <time>2021-04-07T12:17:29Z</time>
      </trkpt>
      <trkpt lat="43.59502" lon="5.0707">
        <ele>68.6</ele>
        <time>2021-04-07T12:17:54Z</time>
      </trkpt>
      <trkpt lat="43.59486" lon="5.07047">
        <ele>68.2</ele>
        <time>2021-04-07T12:18:12Z</time>
      </trkpt>
      <trkpt lat="43.59473" lon="5.07021">
        <ele>67.7</ele>
        <time>2021-04-07T12:18:37Z</time>
      </trkpt>
      <trkpt lat="43.59458" lon="5.06996">
        <ele>67.5</ele>
        <time>2021-04-07T12:18:58Z</time>
      </trkpt>
      <trkpt lat="43.59444" lon="5.06969">
        <ele>67.7</ele>
        <time>2021-04-07T12:19:12Z</time>
      </trkpt>
      <trkpt lat="43.59431" lon="5.06941">
        <ele>68.2</ele>
        <time>2021-04-07T12:19:32Z</time>
      </trkpt>
      <trkpt lat="43.59418" lon="5.06915">
        <ele>68.9</ele>
        <time>2021-04-07T12:19:54Z</time>
      </trkpt>
      <trkpt lat="43.59406" lon="5.06887">
        <ele>69.9</ele>
        <time>2021-04-07T12:20:13Z</time>
      </trkpt>
      <trkpt lat="43.59391" lon="5.06863">
        <ele>70.6</ele>
        <time>2021-04-07T12:20:32Z</time>
      </trkpt>
      <trkpt lat="43.59374" lon="5.06841">
        <ele>71.1</ele>
        <time>2021-04-07T12:20:51Z</time>
      </trkpt>
      <trkpt lat="43.59365" lon="5.06811">
        <ele>71.4</ele>
        <time>2021-04-07T12:21:11Z</time>
      </trkpt>
      <trkpt lat="43.59349" lon="5.06788">
        <ele>71.8</ele>
        <time>2021-04-07T12:21:27Z</time>
      </trkpt>
      <trkpt lat="43.59329" lon="5.06771">
        <ele>72.1</ele>
        <time>2021-04-07T12:21:51Z</time>
      </trkpt>
      <trkpt lat="43.5931" lon="5.06755">
        <ele>72.6</ele>
        <time>2021-04-07T12:22:08Z</time>
      </trkpt>
      <trkpt lat="43.59294" lon="5.06733">
        <ele>73.5</ele>
        <time>2021-04-07T12:22:28Z</time>
      </trkpt>
      <trkpt lat="43.59276" lon="5.06712">
        <ele>74.3</ele>
        <time>2021-04-07T12:22:47Z</time>
      </trkpt>
      <trkpt lat="43.59262" lon="5.06686">
        <ele>74.8</ele>
        <time>2021-04-07T12:23:05Z</time>
      </trkpt>
      <trkpt lat="43.59245" lon="5.06664">
        <ele>75.2</ele>
        <time>2021-04-07T12:23:25Z</time>
      </trkpt>
      <trkpt lat="43.59231" lon="5.06639">
        <ele>75.8</ele>
        <time>2021-04-07T12:23:44Z</time>
      </trkpt>
      <trkpt lat="43.59219" lon="5.0661">
        <ele>76.1</ele>
        <time>2021-04-07T12:24:03Z</time>
      </trkpt>
      <trkpt lat="43.59214" lon="5.06579">
        <ele>76</ele>
        <time>2021-04-07T12:24:25Z</time>
      </trkpt>
      <trkpt lat="43.59208" lon="5.06549">
        <ele>75.2</ele>
        <time>2021-04-07T12:24:41Z</time>
      </trkpt>
      <trkpt lat="43.59204" lon="5.06518">
        <ele>74.2</ele>
        <time>2021-04-07T12:25:08Z</time>
      </trkpt>
      <trkpt lat="43.59204" lon="5.06486">
        <ele>73.6</ele>
        <time>2021-04-07T12:25:25Z</time>
      </trkpt>
      <trkpt lat="43.59198" lon="5.06455">
        <ele>72.8</ele>
        <time>2021-04-07T12:25:39Z</time>
      </trkpt>
      <trkpt lat="43.59197" lon="5.06423">
        <ele>72.3</ele>
        <time>2021-04-07T12:34:27Z</time>
      </trkpt>
      <trkpt lat="43.59199" lon="5.06391">
        <ele>72</ele>
        <time>2021-04-07T12:34:44Z</time>
      </trkpt>
      <trkpt lat="43.592" lon="5.06359">
        <ele>71.7</ele>
        <time>2021-04-07T12:35:04Z</time>
      </trkpt>
      <trkpt lat="43.592" lon="5.06328">
        <ele>71.4</ele>
        <time>2021-04-07T12:35:27Z</time>
      </trkpt>
      <trkpt lat="43.59205" lon="5.06296">
        <ele>71.8</ele>
        <time>2021-04-07T12:35:47Z</time>
      </trkpt>
      <trkpt lat="43.59209" lon="5.06265">
        <ele>72</ele>
        <time>2021-04-07T12:36:09Z</time>
      </trkpt>
      <trkpt lat="43.59214" lon="5.06233">
        <ele>72.8</ele>
        <time>2021-04-07T12:36:28Z</time>
      </trkpt>
      <trkpt lat="43.59209" lon="5.06203">
        <ele>73.2</ele>
        <time>2021-04-07T12:36:46Z</time>
      </trkpt>
      <trkpt lat="43.59214" lon="5.06171">
        <ele>74.2</ele>
        <time>2021-04-07T12:37:08Z</time>
      </trkpt>
      <trkpt lat="43.59215" lon="5.0614">
        <ele>75</ele>
        <time>2021-04-07T12:37:30Z</time>
      </trkpt>
      <trkpt lat="43.59222" lon="5.0611">
        <ele>76.3</ele>
        <time>2021-04-07T12:37:53Z</time>
      </trkpt>
      <trkpt lat="43.59234" lon="5.06082">
        <ele>77.8</ele>
        <time>2021-04-07T12:38:13Z</time>
      </trkpt>
      <trkpt lat="43.59238" lon="5.06051">
        <ele>77.5</ele>
        <time>2021-04-07T12:38:40Z</time>
      </trkpt>
      <trkpt lat="43.5924" lon="5.06019">
        <ele>77</ele>
        <time>2021-04-07T12:38:58Z</time>
      </trkpt>
      <trkpt lat="43.59246" lon="5.05989">
        <ele>76.8</ele>
        <time>2021-04-07T12:39:15Z</time>
      </trkpt>
      <trkpt lat="43.59239" lon="5.05959">
        <ele>76.4</ele>
        <time>2021-04-07T12:39:36Z</time>
      </trkpt>
      <trkpt lat="43.59222" lon="5.0594">
        <ele>76.5</ele>
        <time>2021-04-07T12:39:50Z</time>
      </trkpt>
      <trkpt lat="43.59227" lon="5.05908">
        <ele>76.5</ele>
        <time>2021-04-07T12:40:09Z</time>
      </trkpt>
      <trkpt lat="43.59237" lon="5.0588">
        <ele>76.1</ele>
        <time>2021-04-07T12:40:28Z</time>
      </trkpt>
      <trkpt lat="43.59223" lon="5.05854">
        <ele>76.6</ele>
        <time>2021-04-07T12:40:47Z</time>
      </trkpt>
      <trkpt lat="43.59205" lon="5.05834">
        <ele>77.7</ele>
        <time>2021-04-07T12:41:10Z</time>
      </trkpt>
      <trkpt lat="43.59183" lon="5.05827">
        <ele>79</ele>
        <time>2021-04-07T12:41:41Z</time>
      </trkpt>
      <trkpt lat="43.59159" lon="5.05829">
        <ele>80.5</ele>
        <time>2021-04-07T12:41:57Z</time>
      </trkpt>
      <trkpt lat="43.59137" lon="5.05816">
        <ele>81.7</ele>
        <time>2021-04-07T12:42:17Z</time>
      </trkpt>
      <trkpt lat="43.59116" lon="5.05802">
        <ele>82.6</ele>
        <time>2021-04-07T12:42:34Z</time>
      </trkpt>
      <trkpt lat="43.59102" lon="5.05777">
        <ele>82.4</ele>
        <time>2021-04-07T12:42:55Z</time>
      </trkpt>
      <trkpt lat="43.59079" lon="5.0577">
        <ele>82.9</ele>
        <time>2021-04-07T12:43:19Z</time>
      </trkpt>
      <trkpt lat="43.59058" lon="5.05783">
        <ele>83.6</ele>
        <time>2021-04-07T12:43:38Z</time>
      </trkpt>
      <trkpt lat="43.59035" lon="5.05789">
        <ele>84.1</ele>
        <time>2021-04-07T12:44:00Z</time>
      </trkpt>
      <trkpt lat="43.59012" lon="5.05791">
        <ele>84.4</ele>
        <time>2021-04-07T12:44:19Z</time>
      </trkpt>
      <trkpt lat="43.5899" lon="5.05801">
        <ele>85.6</ele>
        <time>2021-04-07T12:44:46Z</time>
      </trkpt>
      <trkpt lat="43.5897" lon="5.05816">
        <ele>87.8</ele>
        <time>2021-04-07T12:45:02Z</time>
      </trkpt>
      <trkpt lat="43.58948" lon="5.05828">
        <ele>89.9</ele>
        <time>2021-04-07T12:45:16Z</time>
      </trkpt>
      <trkpt lat="43.58926" lon="5.05832">
        <ele>91.4</ele>
        <time>2021-04-07T12:45:35Z</time>
      </trkpt>
      <trkpt lat="43.58905" lon="5.05844">
        <ele>92.1</ele>
        <time>2021-04-07T12:45:54Z</time>
      </trkpt>
      <trkpt lat="43.58885" lon="5.05858">
        <ele>92.4</ele>
        <time>2021-04-07T12:47:24Z</time>
      </trkpt>
      <trkpt lat="43.58866" lon="5.05877">
        <ele>93</ele>
        <time>2021-04-07T12:48:26Z</time>
      </trkpt>
      <trkpt lat="43.58845" lon="5.0589">
        <ele>93.9</ele>
        <time>2021-04-07T12:48:54Z</time>
      </trkpt>
      <trkpt lat="43.58822" lon="5.05888">
        <ele>94.1</ele>
        <time>2021-04-07T12:49:18Z</time>
      </trkpt>
      <trkpt lat="43.58799" lon="5.05886">
        <ele>93.7</ele>
        <time>2021-04-07T12:49:37Z</time>
      </trkpt>
      <trkpt lat="43.58775" lon="5.05881">
        <ele>93.2</ele>
        <time>2021-04-07T12:49:57Z</time>
      </trkpt>
      <trkpt lat="43.58752" lon="5.05877">
        <ele>92.6</ele>
        <time>2021-04-07T12:50:18Z</time>
      </trkpt>
      <trkpt lat="43.58736" lon="5.05899">
        <ele>92.4</ele>
        <time>2021-04-07T12:50:33Z</time>
      </trkpt>
      <trkpt lat="43.58718" lon="5.05919">
        <ele>91.7</ele>
        <time>2021-04-07T12:50:52Z</time>
      </trkpt>
      <trkpt lat="43.587" lon="5.05942">
        <ele>90.5</ele>
        <time>2021-04-07T12:51:17Z</time>
      </trkpt>
      <trkpt lat="43.58683" lon="5.05963">
        <ele>89.5</ele>
        <time>2021-04-07T12:51:38Z</time>
      </trkpt>
      <trkpt lat="43.5866" lon="5.05959">
        <ele>88.4</ele>
        <time>2021-04-07T12:51:59Z</time>
      </trkpt>
      <trkpt lat="43.58638" lon="5.05951">
        <ele>87.7</ele>
        <time>2021-04-07T12:52:20Z</time>
      </trkpt>
      <trkpt lat="43.58616" lon="5.05942">
        <ele>87.1</ele>
        <time>2021-04-07T12:52:34Z</time>
      </trkpt>
      <trkpt lat="43.58594" lon="5.05934">
        <ele>86.4</ele>
        <time>2021-04-07T12:52:57Z</time>
      </trkpt>
      <trkpt lat="43.58575" lon="5.05916">
        <ele>86.3</ele>
        <time>2021-04-07T12:53:14Z</time>
      </trkpt>
      <trkpt lat="43.58555" lon="5.05898">
        <ele>86.6</ele>
        <time>2021-04-07T12:53:35Z</time>
      </trkpt>
      <trkpt lat="43.58546" lon="5.05869">
        <ele>86.2</ele>
        <time>2021-04-07T12:53:53Z</time>
      </trkpt>
      <trkpt lat="43.58536" lon="5.05841">
        <ele>85.9</ele>
        <time>2021-04-07T12:54:13Z</time>
      </trkpt>
      <trkpt lat="43.58525" lon="5.05814">
        <ele>83.7</ele>
        <time>2021-04-07T12:54:32Z</time>
      </trkpt>
      <trkpt lat="43.58524" lon="5.05781">
        <ele>79.5</ele>
        <time>2021-04-07T12:55:03Z</time>
      </trkpt>
      <trkpt lat="43.58526" lon="5.0575">
        <ele>75.7</ele>
        <time>2021-04-07T12:56:00Z</time>
      </trkpt>
      <trkpt lat="43.58506" lon="5.05736">
        <ele>72.8</ele>
        <time>2021-04-07T12:56:28Z</time>
      </trkpt>
      <trkpt lat="43.58499" lon="5.05705">
        <ele>67.5</ele>
        <time>2021-04-07T12:57:55Z</time>
      </trkpt>
      <trkpt lat="43.58489" lon="5.05676">
        <ele>62.6</ele>
        <time>2021-04-07T12:58:55Z</time>
      </trkpt>
      <trkpt lat="43.58485" lon="5.05646">
        <ele>59.6</ele>
        <time>2021-04-07T12:59:17Z</time>
      </trkpt>
      <trkpt lat="43.58481" lon="5.05615">
        <ele>57.6</ele>
        <time>2021-04-07T13:00:45Z</time>
      </trkpt>
      <trkpt lat="43.58471" lon="5.05587">
        <ele>55.9</ele>
        <time>2021-04-07T13:02:05Z</time>
      </trkpt>
      <trkpt lat="43.5846" lon="5.05559">
        <ele>55.1</ele>
        <time>2021-04-07T13:02:39Z</time>
      </trkpt>
      <trkpt lat="43.58454" lon="5.05528">
        <ele>54.1</ele>
        <time>2021-04-07T13:03:00Z</time>
      </trkpt>
      <trkpt lat="43.58445" lon="5.05499">
        <ele>53.3</ele>
        <time>2021-04-07T13:03:26Z</time>
      </trkpt>
      <trkpt lat="43.58433" lon="5.05472">
        <ele>53.3</ele>
        <time>2021-04-07T13:03:46Z</time>
      </trkpt>
      <trkpt lat="43.58431" lon="5.05441">
        <ele>53.1</ele>
        <time>2021-04-07T13:04:00Z</time>
      </trkpt>
      <trkpt lat="43.58422" lon="5.05411">
        <ele>52.8</ele>
        <time>2021-04-07T13:04:21Z</time>
      </trkpt>
      <trkpt lat="43.58409" lon="5.05384">
        <ele>52.1</ele>
        <time>2021-04-07T13:04:38Z</time>
      </trkpt>
      <trkpt lat="43.58411" lon="5.05353">
        <ele>51.3</ele>
        <time>2021-04-07T13:05:02Z</time>
      </trkpt>
      <trkpt lat="43.58431" lon="5.05336">
        <ele>51.1</ele>
        <time>2021-04-07T13:05:37Z</time>
      </trkpt>
      <trkpt lat="43.58453" lon="5.05325">
        <ele>50.3</ele>
        <time>2021-04-07T13:05:57Z</time>
      </trkpt>
      <trkpt lat="43.58475" lon="5.05326">
        <ele>50.4</ele>
        <time>2021-04-07T13:06:12Z</time>
      </trkpt>
      <trkpt lat="43.58498" lon="5.05321">
        <ele>50</ele>
        <time>2021-04-07T13:06:32Z</time>
      </trkpt>
      <trkpt lat="43.58521" lon="5.05319">
        <ele>49.8</ele>
        <time>2021-04-07T13:06:58Z</time>
      </trkpt>
      <trkpt lat="43.58542" lon="5.05307">
        <ele>49.1</ele>
        <time>2021-04-07T13:07:13Z</time>
      </trkpt>
      <trkpt lat="43.58564" lon="5.05293">
        <ele>48.7</ele>
        <time>2021-04-07T13:07:35Z</time>
      </trkpt>
      <trkpt lat="43.58585" lon="5.05279">
        <ele>48.7</ele>
        <time>2021-04-07T13:07:53Z</time>
      </trkpt>
      <trkpt lat="43.58599" lon="5.05254">
        <ele>48.3</ele>
        <time>2021-04-07T13:08:14Z</time>
      </trkpt>
      <trkpt lat="43.58612" lon="5.05228">
        <ele>47</ele>
        <time>2021-04-07T13:08:27Z</time>
      </trkpt>
      <trkpt lat="43.58621" lon="5.05198">
        <ele>45.3</ele>
        <time>2021-04-07T13:08:47Z</time>
      </trkpt>
      <trkpt lat="43.58628" lon="5.05168">
        <ele>43.6</ele>
        <time>2021-04-07T13:09:06Z</time>
      </trkpt>
      <trkpt lat="43.58639" lon="5.0514">
        <ele>42.8</ele>
        <time>2021-04-07T13:09:29Z</time>
      </trkpt>
      <trkpt lat="43.58659" lon="5.05125">
        <ele>42.1</ele>
        <time>2021-04-07T13:10:00Z</time>
      </trkpt>
      <trkpt lat="43.58682" lon="5.05133">
        <ele>42.3</ele>
        <time>2021-04-07T13:10:20Z</time>
      </trkpt>
      <trkpt lat="43.58676" lon="5.05102">
        <ele>40.9</ele>
        <time>2021-04-07T13:10:57Z</time>
      </trkpt>
      <trkpt lat="43.58663" lon="5.05077">
        <ele>40.1</ele>
        <time>2021-04-07T13:11:44Z</time>
      </trkpt>
      <trkpt lat="43.58651" lon="5.05048">
        <ele>40.5</ele>
        <time>2021-04-07T13:12:30Z</time>
      </trkpt>
      <trkpt lat="43.58637" lon="5.05022">
        <ele>41.4</ele>
        <time>2021-04-07T13:12:59Z</time>
      </trkpt>
      <trkpt lat="43.58615" lon="5.05015">
        <ele>43.1</ele>
        <time>2021-04-07T13:15:36Z</time>
      </trkpt>
      <trkpt lat="43.58593" lon="5.05026">
        <ele>44.4</ele>
        <time>2021-04-07T13:15:55Z</time>
      </trkpt>
      <trkpt lat="43.58577" lon="5.05047">
        <ele>44.7</ele>
        <time>2021-04-07T13:16:16Z</time>
      </trkpt>
      <trkpt lat="43.58559" lon="5.05068">
        <ele>45</ele>
        <time>2021-04-07T13:16:47Z</time>
      </trkpt>
      <trkpt lat="43.58541" lon="5.05086">
        <ele>45.5</ele>
        <time>2021-04-07T13:17:14Z</time>
      </trkpt>
      <trkpt lat="43.58524" lon="5.05107">
        <ele>45.6</ele>
        <time>2021-04-07T13:17:35Z</time>
      </trkpt>
      <trkpt lat="43.58505" lon="5.05126">
        <ele>45.3</ele>
        <time>2021-04-07T13:17:57Z</time>
      </trkpt>
      <trkpt lat="43.58483" lon="5.05136">
        <ele>45.2</ele>
        <time>2021-04-07T13:18:19Z</time>
      </trkpt>
      <trkpt lat="43.58461" lon="5.05143">
        <ele>45.4</ele>
        <time>2021-04-07T13:18:37Z</time>
      </trkpt>
      <trkpt lat="43.58438" lon="5.05147">
        <ele>45.7</ele>
        <time>2021-04-07T13:18:59Z</time>
      </trkpt>
      <trkpt lat="43.58415" lon="5.05152">
        <ele>45.9</ele>
        <time>2021-04-07T13:19:21Z</time>
      </trkpt>
      <trkpt lat="43.58394" lon="5.05165">
        <ele>45.3</ele>
        <time>2021-04-07T13:19:40Z</time>
      </trkpt>
      <trkpt lat="43.58372" lon="5.05173">
        <ele>45.5</ele>
        <time>2021-04-07T13:19:56Z</time>
      </trkpt>
      <trkpt lat="43.58351" lon="5.05189">
        <ele>45.5</ele>
        <time>2021-04-07T13:20:17Z</time>
      </trkpt>
      <trkpt lat="43.5833" lon="5.05202">
        <ele>45.6</ele>
        <time>2021-04-07T13:20:39Z</time>
      </trkpt>
      <trkpt lat="43.58306" lon="5.05204">
        <ele>45.4</ele>
        <time>2021-04-07T13:21:03Z</time>
      </trkpt>
      <trkpt lat="43.58283" lon="5.05211">
        <ele>45.1</ele>
        <time>2021-04-07T13:21:24Z</time>
      </trkpt>
      <trkpt lat="43.58263" lon="5.05195">
        <ele>45.6</ele>
        <time>2021-04-07T13:21:48Z</time>
      </trkpt>
      <trkpt lat="43.58245" lon="5.05176">
        <ele>46.6</ele>
        <time>2021-04-07T13:22:05Z</time>
      </trkpt>
      <trkpt lat="43.58226" lon="5.05157">
        <ele>47.7</ele>
        <time>2021-04-07T13:22:23Z</time>
      </trkpt>
      <trkpt lat="43.58206" lon="5.05143">
        <ele>48.7</ele>
        <time>2021-04-07T13:22:42Z</time>
      </trkpt>
      <trkpt lat="43.58183" lon="5.05147">
        <ele>48.9</ele>
        <time>2021-04-07T13:23:06Z</time>
      </trkpt>
      <trkpt lat="43.5816" lon="5.05147">
        <ele>49.5</ele>
        <time>2021-04-07T13:23:29Z</time>
      </trkpt>
      <trkpt lat="43.58137" lon="5.0515">
        <ele>50.3</ele>
        <time>2021-04-07T13:23:52Z</time>
      </trkpt>
      <trkpt lat="43.58114" lon="5.05153">
        <ele>51.1</ele>
        <time>2021-04-07T13:24:15Z</time>
      </trkpt>
      <trkpt lat="43.58092" lon="5.05162">
        <ele>51.8</ele>
        <time>2021-04-07T13:24:34Z</time>
      </trkpt>
      <trkpt lat="43.5807" lon="5.05171">
        <ele>52.5</ele>
        <time>2021-04-07T13:24:53Z</time>
      </trkpt>
      <trkpt lat="43.5805" lon="5.05185">
        <ele>52.7</ele>
        <time>2021-04-07T13:25:16Z</time>
      </trkpt>
      <trkpt lat="43.5803" lon="5.05199">
        <ele>52.8</ele>
        <time>2021-04-07T13:25:36Z</time>
      </trkpt>
      <trkpt lat="43.58007" lon="5.05208">
        <ele>53.5</ele>
        <time>2021-04-07T13:25:58Z</time>
      </trkpt>
      <trkpt lat="43.57985" lon="5.05215">
        <ele>54.8</ele>
        <time>2021-04-07T13:26:19Z</time>
      </trkpt>
      <trkpt lat="43.57966" lon="5.05231">
        <ele>55.2</ele>
        <time>2021-04-07T13:26:38Z</time>
      </trkpt>
      <trkpt lat="43.57947" lon="5.05249">
        <ele>55.8</ele>
        <time>2021-04-07T13:26:58Z</time>
      </trkpt>
      <trkpt lat="43.57923" lon="5.05251">
        <ele>58.2</ele>
        <time>2021-04-07T13:27:18Z</time>
      </trkpt>
      <trkpt lat="43.57901" lon="5.05242">
        <ele>59.8</ele>
        <time>2021-04-07T13:27:38Z</time>
      </trkpt>
      <trkpt lat="43.57882" lon="5.05225">
        <ele>61.3</ele>
        <time>2021-04-07T13:28:03Z</time>
      </trkpt>
      <trkpt lat="43.57862" lon="5.05211">
        <ele>62.7</ele>
        <time>2021-04-07T13:32:08Z</time>
      </trkpt>
      <trkpt lat="43.57841" lon="5.05223">
        <ele>62.4</ele>
        <time>2021-04-07T13:42:52Z</time>
      </trkpt>
      <trkpt lat="43.57825" lon="5.05245">
        <ele>61.8</ele>
        <time>2021-04-07T13:43:17Z</time>
      </trkpt>
      <trkpt lat="43.57825" lon="5.05276">
        <ele>61.8</ele>
        <time>2021-04-07T13:43:41Z</time>
      </trkpt>
      <trkpt lat="43.57841" lon="5.05301">
        <ele>61</ele>
        <time>2021-04-07T13:44:00Z</time>
      </trkpt>
      <trkpt lat="43.57841" lon="5.05335">
        <ele>61</ele>
        <time>2021-04-07T13:44:28Z</time>
      </trkpt>
      <trkpt lat="43.57831" lon="5.05363">
        <ele>60.4</ele>
        <time>2021-04-07T13:44:50Z</time>
      </trkpt>
      <trkpt lat="43.57815" lon="5.05386">
        <ele>60.3</ele>
        <time>2021-04-07T13:45:17Z</time>
      </trkpt>
      <trkpt lat="43.57792" lon="5.05387">
        <ele>62.1</ele>
        <time>2021-04-07T13:45:34Z</time>
      </trkpt>
      <trkpt lat="43.57769" lon="5.05387">
        <ele>63.9</ele>
        <time>2021-04-07T13:45:52Z</time>
      </trkpt>
      <trkpt lat="43.57749" lon="5.05403">
        <ele>64.7</ele>
        <time>2021-04-07T13:46:15Z</time>
      </trkpt>
      <trkpt lat="43.57727" lon="5.05415">
        <ele>66.6</ele>
        <time>2021-04-07T13:46:37Z</time>
      </trkpt>
      <trkpt lat="43.57704" lon="5.0542">
        <ele>68.6</ele>
        <time>2021-04-07T13:46:59Z</time>
      </trkpt>
      <trkpt lat="43.57685" lon="5.05435">
        <ele>68.9</ele>
        <time>2021-04-07T13:47:21Z</time>
      </trkpt>
      <trkpt lat="43.57666" lon="5.05454">
        <ele>69</ele>
        <time>2021-04-07T13:47:41Z</time>
      </trkpt>
      <trkpt lat="43.57647" lon="5.05472">
        <ele>68.8</ele>
        <time>2021-04-07T13:48:04Z</time>
      </trkpt>
      <trkpt lat="43.57628" lon="5.0549">
        <ele>68.6</ele>
        <time>2021-04-07T13:48:25Z</time>
      </trkpt>
      <trkpt lat="43.57606" lon="5.05502">
        <ele>69.5</ele>
        <time>2021-04-07T13:48:48Z</time>
      </trkpt>
      <trkpt lat="43.5759" lon="5.05526">
        <ele>67.5</ele>
        <time>2021-04-07T13:49:13Z</time>
      </trkpt>
      <trkpt lat="43.57574" lon="5.05548">
        <ele>66.4</ele>
        <time>2021-04-07T13:49:33Z</time>
      </trkpt>
      <trkpt lat="43.57554" lon="5.05566">
        <ele>67</ele>
        <time>2021-04-07T13:49:55Z</time>
      </trkpt>
      <trkpt lat="43.57535" lon="5.05585">
        <ele>67.3</ele>
        <time>2021-04-07T13:50:14Z</time>
      </trkpt>
      <trkpt lat="43.5752" lon="5.05609">
        <ele>66.1</ele>
        <time>2021-04-07T13:50:36Z</time>
      </trkpt>
      <trkpt lat="43.57503" lon="5.05629">
        <ele>66.5</ele>
        <time>2021-04-07T13:50:55Z</time>
      </trkpt>
      <trkpt lat="43.57481" lon="5.05638">
        <ele>67.6</ele>
        <time>2021-04-07T13:51:15Z</time>
      </trkpt>
      <trkpt lat="43.57458" lon="5.05641">
        <ele>69.2</ele>
        <time>2021-04-07T13:51:35Z</time>
      </trkpt>
      <trkpt lat="43.57437" lon="5.05659">
        <ele>68.4</ele>
        <time>2021-04-07T13:51:57Z</time>
      </trkpt>
      <trkpt lat="43.57414" lon="5.05659">
        <ele>70.6</ele>
        <time>2021-04-07T13:55:12Z</time>
      </trkpt>
      <trkpt lat="43.57391" lon="5.05664">
        <ele>73.1</ele>
        <time>2021-04-07T13:55:28Z</time>
      </trkpt>
      <trkpt lat="43.57368" lon="5.05665">
        <ele>76.4</ele>
        <time>2021-04-07T13:55:51Z</time>
      </trkpt>
      <trkpt lat="43.5735" lon="5.05684">
        <ele>74.7</ele>
        <time>2021-04-07T13:56:11Z</time>
      </trkpt>
      <trkpt lat="43.57333" lon="5.05705">
        <ele>72.2</ele>
        <time>2021-04-07T13:56:30Z</time>
      </trkpt>
      <trkpt lat="43.57313" lon="5.05719">
        <ele>72.7</ele>
        <time>2021-04-07T13:56:48Z</time>
      </trkpt>
      <trkpt lat="43.57294" lon="5.05737">
        <ele>71.7</ele>
        <time>2021-04-07T13:57:09Z</time>
      </trkpt>
      <trkpt lat="43.57276" lon="5.05758">
        <ele>69</ele>
        <time>2021-04-07T13:57:33Z</time>
      </trkpt>
      <trkpt lat="43.57257" lon="5.05775">
        <ele>66.7</ele>
        <time>2021-04-07T13:57:56Z</time>
      </trkpt>
      <trkpt lat="43.57242" lon="5.058">
        <ele>60.9</ele>
        <time>2021-04-07T13:58:31Z</time>
      </trkpt>
      <trkpt lat="43.57225" lon="5.05821">
        <ele>56.1</ele>
        <time>2021-04-07T13:59:10Z</time>
      </trkpt>
      <trkpt lat="43.57203" lon="5.0583">
        <ele>55.8</ele>
        <time>2021-04-07T13:59:35Z</time>
      </trkpt>
      <trkpt lat="43.57181" lon="5.05843">
        <ele>55.1</ele>
        <time>2021-04-07T14:00:16Z</time>
      </trkpt>
      <trkpt lat="43.57165" lon="5.05864">
        <ele>51.9</ele>
        <time>2021-04-07T14:00:54Z</time>
      </trkpt>
      <trkpt lat="43.57148" lon="5.05887">
        <ele>49.4</ele>
        <time>2021-04-07T14:01:46Z</time>
      </trkpt>
      <trkpt lat="43.5716" lon="5.05915">
        <ele>40.6</ele>
        <time>2021-04-07T14:02:17Z</time>
      </trkpt>
      <trkpt lat="43.57171" lon="5.05942">
        <ele>39.3</ele>
        <time>2021-04-07T14:02:43Z</time>
      </trkpt>
      <trkpt lat="43.57166" lon="5.05973">
        <ele>39.7</ele>
        <time>2021-04-07T14:04:46Z</time>
      </trkpt>
      <trkpt lat="43.57188" lon="5.05986">
        <ele>41.3</ele>
        <time>2021-04-07T14:06:16Z</time>
      </trkpt>
      <trkpt lat="43.5721" lon="5.05978">
        <ele>42.3</ele>
        <time>2021-04-07T14:06:44Z</time>
      </trkpt>
      <trkpt lat="43.57232" lon="5.05971">
        <ele>42.7</ele>
        <time>2021-04-07T14:07:08Z</time>
      </trkpt>
      <trkpt lat="43.57254" lon="5.0597">
        <ele>43.1</ele>
        <time>2021-04-07T14:08:00Z</time>
      </trkpt>
      <trkpt lat="43.57276" lon="5.05965">
        <ele>41.6</ele>
        <time>2021-04-07T14:08:59Z</time>
      </trkpt>
      <trkpt lat="43.57299" lon="5.05962">
        <ele>40.5</ele>
        <time>2021-04-07T14:09:16Z</time>
      </trkpt>
      <trkpt lat="43.57321" lon="5.05949">
        <ele>38.4</ele>
        <time>2021-04-07T14:09:37Z</time>
      </trkpt>
      <trkpt lat="43.57342" lon="5.05938">
        <ele>37.3</ele>
        <time>2021-04-07T14:09:56Z</time>
      </trkpt>
      <trkpt lat="43.57366" lon="5.05939">
        <ele>38.1</ele>
        <time>2021-04-07T14:10:19Z</time>
      </trkpt>
      <trkpt lat="43.57387" lon="5.05951">
        <ele>39.8</ele>
        <time>2021-04-07T14:10:42Z</time>
      </trkpt>
      <trkpt lat="43.57407" lon="5.05966">
        <ele>42</ele>
        <time>2021-04-07T14:10:59Z</time>
      </trkpt>
      <trkpt lat="43.57429" lon="5.05955">
        <ele>43</ele>
        <time>2021-04-07T14:11:22Z</time>
      </trkpt>
      <trkpt lat="43.57449" lon="5.05939">
        <ele>43.7</ele>
        <time>2021-04-07T14:11:47Z</time>
      </trkpt>
      <trkpt lat="43.57469" lon="5.05927">
        <ele>44.3</ele>
        <time>2021-04-07T14:12:10Z</time>
      </trkpt>
      <trkpt lat="43.57487" lon="5.05908">
        <ele>43.9</ele>
        <time>2021-04-07T14:12:31Z</time>
      </trkpt>
      <trkpt lat="43.57509" lon="5.05897">
        <ele>45.2</ele>
        <time>2021-04-07T14:12:52Z</time>
      </trkpt>
      <trkpt lat="43.57531" lon="5.0589">
        <ele>47.3</ele>
        <time>2021-04-07T14:13:12Z</time>
      </trkpt>
      <trkpt lat="43.57519" lon="5.05916">
        <ele>49</ele>
        <time>2021-04-07T14:13:52Z</time>
      </trkpt>
      <trkpt lat="43.57497" lon="5.05924">
        <ele>47.1</ele>
        <time>2021-04-07T14:14:17Z</time>
      </trkpt>
      <trkpt lat="43.57482" lon="5.05947">
        <ele>49.5</ele>
        <time>2021-04-07T14:14:41Z</time>
      </trkpt>
      <trkpt lat="43.5746" lon="5.05958">
        <ele>48.3</ele>
        <time>2021-04-07T14:15:17Z</time>
      </trkpt>
      <trkpt lat="43.57446" lon="5.05983">
        <ele>49.6</ele>
        <time>2021-04-07T14:15:39Z</time>
      </trkpt>
      <trkpt lat="43.57437" lon="5.06012">
        <ele>51.4</ele>
        <time>2021-04-07T14:15:55Z</time>
      </trkpt>
      <trkpt lat="43.57436" lon="5.06043">
        <ele>53.9</ele>
        <time>2021-04-07T14:16:34Z</time>
      </trkpt>
      <trkpt lat="43.57423" lon="5.06069">
        <ele>53.4</ele>
        <time>2021-04-07T14:16:55Z</time>
      </trkpt>
      <trkpt lat="43.57401" lon="5.06078">
        <ele>51.8</ele>
        <time>2021-04-07T14:17:13Z</time>
      </trkpt>
      <trkpt lat="43.57378" lon="5.06088">
        <ele>51.8</ele>
        <time>2021-04-07T14:17:35Z</time>
      </trkpt>
      <trkpt lat="43.57355" lon="5.06094">
        <ele>51.7</ele>
        <time>2021-04-07T14:17:58Z</time>
      </trkpt>
      <trkpt lat="43.57332" lon="5.06099">
        <ele>51.3</ele>
        <time>2021-04-07T14:18:20Z</time>
      </trkpt>
      <trkpt lat="43.5731" lon="5.06109">
        <ele>53.5</ele>
        <time>2021-04-07T14:18:39Z</time>
      </trkpt>
      <trkpt lat="43.57294" lon="5.06131">
        <ele>55.7</ele>
        <time>2021-04-07T14:19:32Z</time>
      </trkpt>
      <trkpt lat="43.57279" lon="5.06154">
        <ele>56.5</ele>
        <time>2021-04-07T14:19:56Z</time>
      </trkpt>
      <trkpt lat="43.57264" lon="5.06177">
        <ele>57.6</ele>
        <time>2021-04-07T14:20:16Z</time>
      </trkpt>
      <trkpt lat="43.57243" lon="5.0619">
        <ele>58.7</ele>
        <time>2021-04-07T14:20:52Z</time>
      </trkpt>
      <trkpt lat="43.57219" lon="5.06192">
        <ele>60</ele>
        <time>2021-04-07T14:21:10Z</time>
      </trkpt>
      <trkpt lat="43.57196" lon="5.06196">
        <ele>61.3</ele>
        <time>2021-04-07T14:21:34Z</time>
      </trkpt>
      <trkpt lat="43.57174" lon="5.06206">
        <ele>62.7</ele>
        <time>2021-04-07T14:22:13Z</time>
      </trkpt>
      <trkpt lat="43.57168" lon="5.06236">
        <ele>64.3</ele>
        <time>2021-04-07T14:22:51Z</time>
      </trkpt>
      <trkpt lat="43.57145" lon="5.06231">
        <ele>63.2</ele>
        <time>2021-04-07T14:23:24Z</time>
      </trkpt>
      <trkpt lat="43.57123" lon="5.0624">
        <ele>62.6</ele>
        <time>2021-04-07T14:23:50Z</time>
      </trkpt>
      <trkpt lat="43.57099" lon="5.06245">
        <ele>61.6</ele>
        <time>2021-04-07T14:24:16Z</time>
      </trkpt>
      <trkpt lat="43.57077" lon="5.06246">
        <ele>60.5</ele>
        <time>2021-04-07T14:24:39Z</time>
      </trkpt>
      <trkpt lat="43.57056" lon="5.06261">
        <ele>60.3</ele>
        <time>2021-04-07T14:24:54Z</time>
      </trkpt>
      <trkpt lat="43.57035" lon="5.06275">
        <ele>60</ele>
        <time>2021-04-07T14:25:15Z</time>
      </trkpt>
      <trkpt lat="43.57016" lon="5.06293">
        <ele>59.9</ele>
        <time>2021-04-07T14:25:34Z</time>
      </trkpt>
      <trkpt lat="43.56995" lon="5.06306">
        <ele>59.5</ele>
        <time>2021-04-07T14:25:52Z</time>
      </trkpt>
      <trkpt lat="43.56975" lon="5.06323">
        <ele>59.9</ele>
        <time>2021-04-07T14:26:15Z</time>
      </trkpt>
      <trkpt lat="43.56954" lon="5.06335">
        <ele>60</ele>
        <time>2021-04-07T14:26:31Z</time>
      </trkpt>
      <trkpt lat="43.56933" lon="5.0635">
        <ele>61</ele>
        <time>2021-04-07T14:26:55Z</time>
      </trkpt>
      <trkpt lat="43.56916" lon="5.0637">
        <ele>61.9</ele>
        <time>2021-04-07T14:27:36Z</time>
      </trkpt>
      <trkpt lat="43.56917" lon="5.06402">
        <ele>64.8</ele>
        <time>2021-04-07T14:28:13Z</time>
      </trkpt>
      <trkpt lat="43.56923" lon="5.06433">
        <ele>68.2</ele>
        <time>2021-04-07T14:28:41Z</time>
      </trkpt>
      <trkpt lat="43.56926" lon="5.06465">
        <ele>71.9</ele>
        <time>2021-04-07T14:29:01Z</time>
      </trkpt>
      <trkpt lat="43.56926" lon="5.06496">
        <ele>75</ele>
        <time>2021-04-07T14:29:17Z</time>
      </trkpt>
      <trkpt lat="43.56933" lon="5.06526">
        <ele>78.6</ele>
        <time>2021-04-07T14:29:41Z</time>
      </trkpt>
      <trkpt lat="43.56941" lon="5.06556">
        <ele>82.1</ele>
        <time>2021-04-07T14:30:02Z</time>
      </trkpt>
      <trkpt lat="43.56947" lon="5.06586">
        <ele>85.1</ele>
        <time>2021-04-07T14:30:25Z</time>
      </trkpt>
      <trkpt lat="43.56949" lon="5.06618">
        <ele>86.3</ele>
        <time>2021-04-07T14:30:42Z</time>
      </trkpt>
      <trkpt lat="43.5695" lon="5.0665">
        <ele>87.3</ele>
        <time>2021-04-07T14:30:59Z</time>
      </trkpt>
      <trkpt lat="43.56948" lon="5.06681">
        <ele>88.5</ele>
        <time>2021-04-07T14:31:15Z</time>
      </trkpt>
      <trkpt lat="43.56941" lon="5.06711">
        <ele>89.8</ele>
        <time>2021-04-07T14:31:31Z</time>
      </trkpt>
      <trkpt lat="43.5694" lon="5.06744">
        <ele>91.6</ele>
        <time>2021-04-07T14:31:47Z</time>
      </trkpt>
      <trkpt lat="43.56937" lon="5.06777">
        <ele>93.4</ele>
        <time>2021-04-07T14:32:04Z</time>
      </trkpt>
      <trkpt lat="43.5693" lon="5.06811">
        <ele>95.3</ele>
        <time>2021-04-07T14:32:24Z</time>
      </trkpt>
      <trkpt lat="43.56921" lon="5.0684">
        <ele>96.5</ele>
        <time>2021-04-07T14:32:36Z</time>
      </trkpt>
      <trkpt lat="43.56908" lon="5.06866">
        <ele>97.4</ele>
        <time>2021-04-07T14:32:49Z</time>
      </trkpt>
      <trkpt lat="43.56924" lon="5.06841">
        <ele>96.7</ele>
        <time>2021-04-07T14:33:18Z</time>
      </trkpt>
      <trkpt lat="43.56931" lon="5.06811">
        <ele>95.3</ele>
        <time>2021-04-07T14:33:32Z</time>
      </trkpt>
      <trkpt lat="43.56938" lon="5.06782">
        <ele>93.9</ele>
        <time>2021-04-07T14:33:47Z</time>
      </trkpt>
      <trkpt lat="43.56936" lon="5.06813">
        <ele>95.8</ele>
        <time>2021-04-07T14:34:39Z</time>
      </trkpt>
      <trkpt lat="43.56924" lon="5.06841">
        <ele>96.7</ele>
        <time>2021-04-07T14:34:59Z</time>
      </trkpt>
      <trkpt lat="43.56916" lon="5.06871">
        <ele>97.4</ele>
        <time>2021-04-07T14:35:22Z</time>
      </trkpt>
      <trkpt lat="43.56903" lon="5.06896">
        <ele>98.4</ele>
        <time>2021-04-07T14:36:04Z</time>
      </trkpt>
      <trkpt lat="43.56926" lon="5.06904">
        <ele>98.9</ele>
        <time>2021-04-07T14:37:36Z</time>
      </trkpt>
      <trkpt lat="43.56949" lon="5.0691">
        <ele>100</ele>
        <time>2021-04-07T14:37:57Z</time>
      </trkpt>
      <trkpt lat="43.56972" lon="5.06911">
        <ele>100.9</ele>
        <time>2021-04-07T14:38:28Z</time>
      </trkpt>
      <trkpt lat="43.56995" lon="5.06913">
        <ele>101.8</ele>
        <time>2021-04-07T14:38:47Z</time>
      </trkpt>
      <trkpt lat="43.57018" lon="5.06913">
        <ele>101.5</ele>
        <time>2021-04-07T14:39:06Z</time>
      </trkpt>
      <trkpt lat="43.57041" lon="5.06917">
        <ele>101</ele>
        <time>2021-04-07T14:39:26Z</time>
      </trkpt>
      <trkpt lat="43.57066" lon="5.06916">
        <ele>100.4</ele>
        <time>2021-04-07T14:39:49Z</time>
      </trkpt>
      <trkpt lat="43.57089" lon="5.06911">
        <ele>100.1</ele>
        <time>2021-04-07T14:40:11Z</time>
      </trkpt>
      <trkpt lat="43.57112" lon="5.06917">
        <ele>100</ele>
        <time>2021-04-07T14:40:27Z</time>
      </trkpt>
      <trkpt lat="43.57134" lon="5.06919">
        <ele>99.9</ele>
        <time>2021-04-07T14:40:48Z</time>
      </trkpt>
      <trkpt lat="43.57157" lon="5.06925">
        <ele>99.5</ele>
        <time>2021-04-07T14:41:08Z</time>
      </trkpt>
      <trkpt lat="43.57178" lon="5.06935">
        <ele>98.4</ele>
        <time>2021-04-07T14:41:29Z</time>
      </trkpt>
      <trkpt lat="43.57201" lon="5.06941">
        <ele>97.1</ele>
        <time>2021-04-07T14:41:48Z</time>
      </trkpt>
      <trkpt lat="43.57224" lon="5.06938">
        <ele>96.3</ele>
        <time>2021-04-07T14:42:10Z</time>
      </trkpt>
      <trkpt lat="43.57247" lon="5.06933">
        <ele>95.7</ele>
        <time>2021-04-07T14:42:22Z</time>
      </trkpt>
      <trkpt lat="43.57269" lon="5.06922">
        <ele>97.6</ele>
        <time>2021-04-07T14:42:45Z</time>
      </trkpt>
      <trkpt lat="43.5729" lon="5.06909">
        <ele>99.4</ele>
        <time>2021-04-07T14:43:10Z</time>
      </trkpt>
      <trkpt lat="43.57312" lon="5.069">
        <ele>100.5</ele>
        <time>2021-04-07T14:43:32Z</time>
      </trkpt>
      <trkpt lat="43.57332" lon="5.06883">
        <ele>101.1</ele>
        <time>2021-04-07T14:43:48Z</time>
      </trkpt>
      <trkpt lat="43.57354" lon="5.0688">
        <ele>101</ele>
        <time>2021-04-07T14:44:01Z</time>
      </trkpt>
      <trkpt lat="43.57377" lon="5.06874">
        <ele>101</ele>
        <time>2021-04-07T14:44:51Z</time>
      </trkpt>
      <trkpt lat="43.57397" lon="5.0686">
        <ele>101.5</ele>
        <time>2021-04-07T14:45:13Z</time>
      </trkpt>
      <trkpt lat="43.57418" lon="5.06846">
        <ele>102.3</ele>
        <time>2021-04-07T14:45:31Z</time>
      </trkpt>
      <trkpt lat="43.57439" lon="5.06832">
        <ele>102.2</ele>
        <time>2021-04-07T14:45:57Z</time>
      </trkpt>
      <trkpt lat="43.57457" lon="5.06812">
        <ele>101.7</ele>
        <time>2021-04-07T14:46:14Z</time>
      </trkpt>
      <trkpt lat="43.57477" lon="5.06796">
        <ele>101.4</ele>
        <time>2021-04-07T14:46:34Z</time>
      </trkpt>
      <trkpt lat="43.57497" lon="5.06781">
        <ele>101.3</ele>
        <time>2021-04-07T14:46:53Z</time>
      </trkpt>
      <trkpt lat="43.57521" lon="5.06777">
        <ele>100.3</ele>
        <time>2021-04-07T14:47:14Z</time>
      </trkpt>
      <trkpt lat="43.57545" lon="5.06778">
        <ele>99</ele>
        <time>2021-04-07T14:47:36Z</time>
      </trkpt>
      <trkpt lat="43.57568" lon="5.06772">
        <ele>98.4</ele>
        <time>2021-04-07T14:47:59Z</time>
      </trkpt>
      <trkpt lat="43.57591" lon="5.06771">
        <ele>97.4</ele>
        <time>2021-04-07T14:48:20Z</time>
      </trkpt>
      <trkpt lat="43.57612" lon="5.06761">
        <ele>97.7</ele>
        <time>2021-04-07T14:48:42Z</time>
      </trkpt>
      <trkpt lat="43.57633" lon="5.06747">
        <ele>98.5</ele>
        <time>2021-04-07T14:49:07Z</time>
      </trkpt>
      <trkpt lat="43.57655" lon="5.06732">
        <ele>99.5</ele>
        <time>2021-04-07T14:49:25Z</time>
      </trkpt>
      <trkpt lat="43.57678" lon="5.06732">
        <ele>98.4</ele>
        <time>2021-04-07T14:50:09Z</time>
      </trkpt>
      <trkpt lat="43.57701" lon="5.06735">
        <ele>96.3</ele>
        <time>2021-04-07T14:50:45Z</time>
      </trkpt>
      <trkpt lat="43.57723" lon="5.06741">
        <ele>93.9</ele>
        <time>2021-04-07T14:51:09Z</time>
      </trkpt>
      <trkpt lat="43.57746" lon="5.06737">
        <ele>92.7</ele>
        <time>2021-04-07T14:51:23Z</time>
      </trkpt>
      <trkpt lat="43.5777" lon="5.06735">
        <ele>92.2</ele>
        <time>2021-04-07T14:51:50Z</time>
      </trkpt>
      <trkpt lat="43.57794" lon="5.06734">
        <ele>91.8</ele>
        <time>2021-04-07T14:52:10Z</time>
      </trkpt>
      <trkpt lat="43.57816" lon="5.06739">
        <ele>90.7</ele>
        <time>2021-04-07T14:52:30Z</time>
      </trkpt>
      <trkpt lat="43.5784" lon="5.06739">
        <ele>90</ele>
        <time>2021-04-07T14:53:02Z</time>
      </trkpt>
      <trkpt lat="43.57864" lon="5.06736">
        <ele>89.4</ele>
        <time>2021-04-07T14:53:24Z</time>
      </trkpt>
      <trkpt lat="43.57886" lon="5.06729">
        <ele>89.2</ele>
        <time>2021-04-07T14:53:45Z</time>
      </trkpt>
      <trkpt lat="43.57909" lon="5.06725">
        <ele>88.5</ele>
        <time>2021-04-07T14:54:05Z</time>
      </trkpt>
      <trkpt lat="43.57931" lon="5.06732">
        <ele>86.6</ele>
        <time>2021-04-07T14:54:56Z</time>
      </trkpt>
      <trkpt lat="43.57952" lon="5.06747">
        <ele>83.7</ele>
        <time>2021-04-07T14:55:19Z</time>
      </trkpt>
      <trkpt lat="43.57956" lon="5.06778">
        <ele>80.9</ele>
        <time>2021-04-07T14:57:22Z</time>
      </trkpt>
      <trkpt lat="43.57958" lon="5.0681">
        <ele>78.3</ele>
        <time>2021-04-07T14:57:45Z</time>
      </trkpt>
      <trkpt lat="43.57966" lon="5.0684">
        <ele>75.9</ele>
        <time>2021-04-07T14:58:04Z</time>
      </trkpt>
      <trkpt lat="43.57973" lon="5.0687">
        <ele>74.2</ele>
        <time>2021-04-07T14:58:27Z</time>
      </trkpt>
      <trkpt lat="43.5798" lon="5.069">
        <ele>72.5</ele>
        <time>2021-04-07T14:58:50Z</time>
      </trkpt>
      <trkpt lat="43.5799" lon="5.06928">
        <ele>71.6</ele>
        <time>2021-04-07T14:59:09Z</time>
      </trkpt>
      <trkpt lat="43.57996" lon="5.06958">
        <ele>72.1</ele>
        <time>2021-04-07T14:59:29Z</time>
      </trkpt>
      <trkpt lat="43.58001" lon="5.06989">
        <ele>72.8</ele>
        <time>2021-04-07T14:59:50Z</time>
      </trkpt>
      <trkpt lat="43.57997" lon="5.07021">
        <ele>73.8</ele>
        <time>2021-04-07T15:00:14Z</time>
      </trkpt>
      <trkpt lat="43.57989" lon="5.07051">
        <ele>75.1</ele>
        <time>2021-04-07T15:00:36Z</time>
      </trkpt>
      <trkpt lat="43.57992" lon="5.07083">
        <ele>76.1</ele>
        <time>2021-04-07T15:00:56Z</time>
      </trkpt>
      <trkpt lat="43.57991" lon="5.07115">
        <ele>76.8</ele>
        <time>2021-04-07T15:01:18Z</time>
      </trkpt>
      <trkpt lat="43.57991" lon="5.07147">
        <ele>77.5</ele>
        <time>2021-04-07T15:02:46Z</time>
      </trkpt>
      <trkpt lat="43.57979" lon="5.07174">
        <ele>77.5</ele>
        <time>2021-04-07T15:03:08Z</time>
      </trkpt>
      <trkpt lat="43.57982" lon="5.07206">
        <ele>76.7</ele>
        <time>2021-04-07T15:03:34Z</time>
      </trkpt>
      <trkpt lat="43.57981" lon="5.07238">
        <ele>75.9</ele>
        <time>2021-04-07T15:03:56Z</time>
      </trkpt>
      <trkpt lat="43.57971" lon="5.07266">
        <ele>74.8</ele>
        <time>2021-04-07T15:04:22Z</time>
      </trkpt>
      <trkpt lat="43.57963" lon="5.07296">
        <ele>73.5</ele>
        <time>2021-04-07T15:04:43Z</time>
      </trkpt>
      <trkpt lat="43.57954" lon="5.07324">
        <ele>72.1</ele>
        <time>2021-04-07T15:05:20Z</time>
      </trkpt>
      <trkpt lat="43.57975" lon="5.0731">
        <ele>73.5</ele>
        <time>2021-04-07T15:10:06Z</time>
      </trkpt>
      <trkpt lat="43.57997" lon="5.07298">
        <ele>74.7</ele>
        <time>2021-04-07T15:10:29Z</time>
      </trkpt>
      <trkpt lat="43.58021" lon="5.07297">
        <ele>76.1</ele>
        <time>2021-04-07T15:10:48Z</time>
      </trkpt>
      <trkpt lat="43.58044" lon="5.07296">
        <ele>77.4</ele>
        <time>2021-04-07T15:11:11Z</time>
      </trkpt>
      <trkpt lat="43.58067" lon="5.07294">
        <ele>78.9</ele>
        <time>2021-04-07T15:11:31Z</time>
      </trkpt>
      <trkpt lat="43.58089" lon="5.073">
        <ele>79.3</ele>
        <time>2021-04-07T15:11:55Z</time>
      </trkpt>
      <trkpt lat="43.58112" lon="5.07297">
        <ele>79.4</ele>
        <time>2021-04-07T15:12:18Z</time>
      </trkpt>
      <trkpt lat="43.58134" lon="5.07298">
        <ele>79</ele>
        <time>2021-04-07T15:12:41Z</time>
      </trkpt>
      <trkpt lat="43.58155" lon="5.07312">
        <ele>77</ele>
        <time>2021-04-07T15:13:02Z</time>
      </trkpt>
      <trkpt lat="43.58168" lon="5.07338">
        <ele>73.9</ele>
        <time>2021-04-07T15:13:26Z</time>
      </trkpt>
      <trkpt lat="43.58179" lon="5.07365">
        <ele>73.5</ele>
        <time>2021-04-07T15:13:50Z</time>
      </trkpt>
      <trkpt lat="43.58194" lon="5.07388">
        <ele>73.6</ele>
        <time>2021-04-07T15:14:11Z</time>
      </trkpt>
      <trkpt lat="43.58208" lon="5.07413">
        <ele>74</ele>
        <time>2021-04-07T15:14:30Z</time>
      </trkpt>
      <trkpt lat="43.58219" lon="5.07442">
        <ele>75.4</ele>
        <time>2021-04-07T15:14:46Z</time>
      </trkpt>
      <trkpt lat="43.58211" lon="5.07471">
        <ele>76.1</ele>
        <time>2021-04-07T15:15:06Z</time>
      </trkpt>
      <trkpt lat="43.58201" lon="5.07499">
        <ele>76.6</ele>
        <time>2021-04-07T15:15:35Z</time>
      </trkpt>
      <trkpt lat="43.58203" lon="5.07531">
        <ele>75.7</ele>
        <time>2021-04-07T15:16:00Z</time>
      </trkpt>
      <trkpt lat="43.58219" lon="5.07555">
        <ele>75.2</ele>
        <time>2021-04-07T15:16:22Z</time>
      </trkpt>
      <trkpt lat="43.5824" lon="5.07565">
        <ele>75</ele>
        <time>2021-04-07T15:16:47Z</time>
      </trkpt>
      <trkpt lat="43.58263" lon="5.07564">
        <ele>75.2</ele>
        <time>2021-04-07T15:17:10Z</time>
      </trkpt>
      <trkpt lat="43.58286" lon="5.07564">
        <ele>75.1</ele>
        <time>2021-04-07T15:17:34Z</time>
      </trkpt>
      <trkpt lat="43.58309" lon="5.07571">
        <ele>74.4</ele>
        <time>2021-04-07T15:17:56Z</time>
      </trkpt>
      <trkpt lat="43.58331" lon="5.07581">
        <ele>73.3</ele>
        <time>2021-04-07T15:18:19Z</time>
      </trkpt>
      <trkpt lat="43.58353" lon="5.07591">
        <ele>71.9</ele>
        <time>2021-04-07T15:18:41Z</time>
      </trkpt>
      <trkpt lat="43.58371" lon="5.07612">
        <ele>70.6</ele>
        <time>2021-04-07T15:19:01Z</time>
      </trkpt>
      <trkpt lat="43.58378" lon="5.07642">
        <ele>69.4</ele>
        <time>2021-04-07T15:19:23Z</time>
      </trkpt>
      <trkpt lat="43.58386" lon="5.07672">
        <ele>68.6</ele>
        <time>2021-04-07T15:19:46Z</time>
      </trkpt>
      <trkpt lat="43.58391" lon="5.07703">
        <ele>68.3</ele>
        <time>2021-04-07T15:20:16Z</time>
      </trkpt>
      <trkpt lat="43.58401" lon="5.07731">
        <ele>68</ele>
        <time>2021-04-07T15:20:39Z</time>
      </trkpt>
      <trkpt lat="43.5839" lon="5.07759">
        <ele>67.8</ele>
        <time>2021-04-07T15:21:05Z</time>
      </trkpt>
      <trkpt lat="43.58395" lon="5.07791">
        <ele>68</ele>
        <time>2021-04-07T15:21:32Z</time>
      </trkpt>
      <trkpt lat="43.58413" lon="5.07809">
        <ele>68</ele>
        <time>2021-04-07T15:21:55Z</time>
      </trkpt>
      <trkpt lat="43.5842" lon="5.07839">
        <ele>67.8</ele>
        <time>2021-04-07T15:22:14Z</time>
      </trkpt>
      <trkpt lat="43.58411" lon="5.07868">
        <ele>67.2</ele>
        <time>2021-04-07T15:23:07Z</time>
      </trkpt>
      <trkpt lat="43.58392" lon="5.07885">
        <ele>67.1</ele>
        <time>2021-04-07T15:23:27Z</time>
      </trkpt>
      <trkpt lat="43.58377" lon="5.0791">
        <ele>66.6</ele>
        <time>2021-04-07T15:23:50Z</time>
      </trkpt>
      <trkpt lat="43.58374" lon="5.07942">
        <ele>65.5</ele>
        <time>2021-04-07T15:24:17Z</time>
      </trkpt>
      <trkpt lat="43.58369" lon="5.07974">
        <ele>64.3</ele>
        <time>2021-04-07T15:24:40Z</time>
      </trkpt>
      <trkpt lat="43.58363" lon="5.08004">
        <ele>63.6</ele>
        <time>2021-04-07T15:25:04Z</time>
      </trkpt>
      <trkpt lat="43.58361" lon="5.08035">
        <ele>63.7</ele>
        <time>2021-04-07T15:25:24Z</time>
      </trkpt>
      <trkpt lat="43.58362" lon="5.08067">
        <ele>63.6</ele>
        <time>2021-04-07T15:25:44Z</time>
      </trkpt>
      <trkpt lat="43.58358" lon="5.08098">
        <ele>64</ele>
        <time>2021-04-07T15:26:06Z</time>
      </trkpt>
      <trkpt lat="43.58355" lon="5.0813">
        <ele>64.5</ele>
        <time>2021-04-07T15:26:28Z</time>
      </trkpt>
      <trkpt lat="43.58352" lon="5.08162">
        <ele>65</ele>
        <time>2021-04-07T15:26:56Z</time>
      </trkpt>
      <trkpt lat="43.58373" lon="5.08179">
        <ele>64.9</ele>
        <time>2021-04-07T15:27:20Z</time>
      </trkpt>
      <trkpt lat="43.58389" lon="5.08202">
        <ele>65.1</ele>
        <time>2021-04-07T15:28:08Z</time>
      </trkpt>
      <trkpt lat="43.58403" lon="5.08228">
        <ele>65.9</ele>
        <time>2021-04-07T15:28:25Z</time>
      </trkpt>
      <trkpt lat="43.58415" lon="5.08255">
        <ele>67.1</ele>
        <time>2021-04-07T15:28:59Z</time>
      </trkpt>
      <trkpt lat="43.58428" lon="5.08281">
        <ele>68.1</ele>
        <time>2021-04-07T15:29:37Z</time>
      </trkpt>
      <trkpt lat="43.58407" lon="5.08268">
        <ele>67</ele>
        <time>2021-04-07T15:34:58Z</time>
      </trkpt>
      <trkpt lat="43.58398" lon="5.08298">
        <ele>67.5</ele>
        <time>2021-04-07T15:35:01Z</time>
      </trkpt>
    </trkseg>
  </trk>
</gpx>